sensor_id;sensor_type;location;lat;lon;timestamp;P1;durP1;ratioP1;P2;durP2;ratioP2
37657;SDS011;23500;53.268;8.308;2023-08-08T00:00:35;2.30;;;1.98;;
37657;SDS011;23500;53.268;8.308;2023-08-08T00:03:01;1.80;;;1.70;;
37657;SDS011;23500;53.268;8.308;2023-08-08T00:05:27;2.58;;;2.00;;
37657;SDS011;23500;53.268;8.308;2023-08-08T00:07:52;2.25;;;1.73;;
37657;SDS011;23500;53.268;8.308;2023-08-08T00:10:18;2.33;;;1.80;;
37657;SDS011;23500;53.268;8.308;2023-08-08T00:12:43;4.18;;;2.15;;
37657;SDS011;23500;53.268;8.308;2023-08-08T00:15:09;3.35;;;1.90;;
37657;SDS011;23500;53.268;8.308;2023-08-08T00:17:35;2.10;;;1.80;;
37657;SDS011;23500;53.268;8.308;2023-08-08T00:20:01;2.85;;;1.90;;
37657;SDS011;23500;53.268;8.308;2023-08-08T00:22:27;2.10;;;1.90;;
37657;SDS011;23500;53.268;8.308;2023-08-08T00:24:53;2.10;;;1.80;;
37657;SDS011;23500;53.268;8.308;2023-08-08T00:27:18;2.10;;;1.70;;
37657;SDS011;23500;53.268;8.308;2023-08-08T00:29:44;2.15;;;1.63;;
37657;SDS011;23500;53.268;8.308;2023-08-08T00:32:10;2.05;;;1.67;;
37657;SDS011;23500;53.268;8.308;2023-08-08T00:34:36;2.13;;;1.70;;
37657;SDS011;23500;53.268;8.308;2023-08-08T00:37:02;1.67;;;1.58;;
37657;SDS011;23500;53.268;8.308;2023-08-08T00:39:27;2.10;;;1.90;;
37657;SDS011;23500;53.268;8.308;2023-08-08T00:41:53;1.95;;;1.77;;
37657;SDS011;23500;53.268;8.308;2023-08-08T00:44:19;2.00;;;1.80;;
37657;SDS011;23500;53.268;8.308;2023-08-08T00:46:44;2.30;;;1.55;;
37657;SDS011;23500;53.268;8.308;2023-08-08T00:49:10;2.60;;;1.90;;
37657;SDS011;23500;53.268;8.308;2023-08-08T00:51:36;2.17;;;1.85;;
37657;SDS011;23500;53.268;8.308;2023-08-08T00:54:03;1.73;;;1.52;;
37657;SDS011;23500;53.268;8.308;2023-08-08T00:56:30;3.20;;;1.90;;
37657;SDS011;23500;53.268;8.308;2023-08-08T00:58:56;2.40;;;1.67;;
37657;SDS011;23500;53.268;8.308;2023-08-08T01:01:22;1.67;;;1.52;;
37657;SDS011;23500;53.268;8.308;2023-08-08T01:03:48;1.67;;;1.58;;
37657;SDS011;23500;53.268;8.308;2023-08-08T01:09:00;2.40;;;2.00;;
37657;SDS011;23500;53.268;8.308;2023-08-08T01:11:48;1.77;;;1.67;;
37657;SDS011;23500;53.268;8.308;2023-08-08T01:14:14;2.42;;;1.70;;
37657;SDS011;23500;53.268;8.308;2023-08-08T01:16:43;2.33;;;1.70;;
37657;SDS011;23500;53.268;8.308;2023-08-08T01:19:12;2.42;;;1.67;;
37657;SDS011;23500;53.268;8.308;2023-08-08T01:21:44;2.85;;;2.05;;
37657;SDS011;23500;53.268;8.308;2023-08-08T01:24:17;1.90;;;1.70;;
37657;SDS011;23500;53.268;8.308;2023-08-08T01:26:45;2.72;;;1.98;;
37657;SDS011;23500;53.268;8.308;2023-08-08T01:29:11;2.55;;;2.10;;
37657;SDS011;23500;53.268;8.308;2023-08-08T01:31:37;1.63;;;1.42;;
37657;SDS011;23500;53.268;8.308;2023-08-08T01:34:02;1.83;;;1.67;;
37657;SDS011;23500;53.268;8.308;2023-08-08T01:36:30;2.17;;;1.60;;
37657;SDS011;23500;53.268;8.308;2023-08-08T01:39:00;2.40;;;1.73;;
37657;SDS011;23500;53.268;8.308;2023-08-08T01:41:31;1.88;;;1.70;;
37657;SDS011;23500;53.268;8.308;2023-08-08T01:43:58;2.08;;;1.60;;
37657;SDS011;23500;53.268;8.308;2023-08-08T01:46:25;2.00;;;1.80;;
37657;SDS011;23500;53.268;8.308;2023-08-08T01:48:51;2.08;;;1.48;;
37657;SDS011;23500;53.268;8.308;2023-08-08T01:51:17;2.35;;;1.80;;
37657;SDS011;23500;53.268;8.308;2023-08-08T01:53:43;2.42;;;1.70;;
37657;SDS011;23500;53.268;8.308;2023-08-08T01:56:08;1.85;;;1.67;;
37657;SDS011;23500;53.268;8.308;2023-08-08T01:58:34;3.25;;;1.60;;
37657;SDS011;23500;53.268;8.308;2023-08-08T02:00:59;1.85;;;1.65;;
37657;SDS011;23500;53.268;8.308;2023-08-08T02:03:25;2.80;;;1.67;;
37657;SDS011;23500;53.268;8.308;2023-08-08T02:05:51;1.70;;;1.40;;
37657;SDS011;23500;53.268;8.308;2023-08-08T02:08:16;2.25;;;1.65;;
37657;SDS011;23500;53.268;8.308;2023-08-08T02:10:43;2.25;;;1.58;;
37657;SDS011;23500;53.268;8.308;2023-08-08T02:13:08;2.17;;;1.50;;
37657;SDS011;23500;53.268;8.308;2023-08-08T02:15:34;2.35;;;1.80;;
37657;SDS011;23500;53.268;8.308;2023-08-08T02:18:00;1.98;;;1.60;;
37657;SDS011;23500;53.268;8.308;2023-08-08T02:20:26;1.90;;;1.63;;
37657;SDS011;23500;53.268;8.308;2023-08-08T02:22:51;1.67;;;1.40;;
37657;SDS011;23500;53.268;8.308;2023-08-08T02:25:17;1.95;;;1.67;;
37657;SDS011;23500;53.268;8.308;2023-08-08T02:27:43;1.90;;;1.50;;
37657;SDS011;23500;53.268;8.308;2023-08-08T02:30:09;2.70;;;1.75;;
37657;SDS011;23500;53.268;8.308;2023-08-08T02:32:35;1.67;;;1.50;;
37657;SDS011;23500;53.268;8.308;2023-08-08T02:35:01;3.15;;;1.50;;
37657;SDS011;23500;53.268;8.308;2023-08-08T02:37:27;1.63;;;1.48;;
37657;SDS011;23500;53.268;8.308;2023-08-08T02:39:52;2.50;;;1.88;;
37657;SDS011;23500;53.268;8.308;2023-08-08T02:42:18;2.42;;;1.80;;
37657;SDS011;23500;53.268;8.308;2023-08-08T02:44:43;3.03;;;1.63;;
37657;SDS011;23500;53.268;8.308;2023-08-08T02:47:09;1.55;;;1.45;;
37657;SDS011;23500;53.268;8.308;2023-08-08T02:49:35;1.88;;;1.67;;
37657;SDS011;23500;53.268;8.308;2023-08-08T02:52:01;2.00;;;1.80;;
37657;SDS011;23500;53.268;8.308;2023-08-08T02:54:26;2.13;;;1.73;;
37657;SDS011;23500;53.268;8.308;2023-08-08T02:56:52;1.35;;;1.25;;
37657;SDS011;23500;53.268;8.308;2023-08-08T02:59:18;1.85;;;1.42;;
37657;SDS011;23500;53.268;8.308;2023-08-08T03:01:43;1.55;;;1.45;;
37657;SDS011;23500;53.268;8.308;2023-08-08T03:04:09;2.38;;;1.88;;
37657;SDS011;23500;53.268;8.308;2023-08-08T03:06:35;2.95;;;1.75;;
37657;SDS011;23500;53.268;8.308;2023-08-08T03:09:00;1.75;;;1.65;;
37657;SDS011;23500;53.268;8.308;2023-08-08T03:11:26;1.90;;;1.70;;
37657;SDS011;23500;53.268;8.308;2023-08-08T03:13:52;1.92;;;1.73;;
37657;SDS011;23500;53.268;8.308;2023-08-08T03:16:17;2.05;;;1.67;;
37657;SDS011;23500;53.268;8.308;2023-08-08T03:18:43;1.80;;;1.50;;
37657;SDS011;23500;53.268;8.308;2023-08-08T03:21:08;1.63;;;1.50;;
37657;SDS011;23500;53.268;8.308;2023-08-08T03:23:34;1.50;;;1.40;;
37657;SDS011;23500;53.268;8.308;2023-08-08T03:26:00;2.40;;;1.50;;
37657;SDS011;23500;53.268;8.308;2023-08-08T03:28:25;1.90;;;1.58;;
37657;SDS011;23500;53.268;8.308;2023-08-08T03:30:51;1.83;;;1.45;;
37657;SDS011;23500;53.268;8.308;2023-08-08T03:33:17;3.47;;;1.63;;
37657;SDS011;23500;53.268;8.308;2023-08-08T03:35:42;2.38;;;1.80;;
37657;SDS011;23500;53.268;8.308;2023-08-08T03:38:08;2.30;;;1.45;;
37657;SDS011;23500;53.268;8.308;2023-08-08T03:40:34;1.80;;;1.35;;
37657;SDS011;23500;53.268;8.308;2023-08-08T03:43:00;2.10;;;1.80;;
37657;SDS011;23500;53.268;8.308;2023-08-08T03:45:25;1.58;;;1.48;;
37657;SDS011;23500;53.268;8.308;2023-08-08T03:47:51;1.92;;;1.70;;
37657;SDS011;23500;53.268;8.308;2023-08-08T03:50:17;1.58;;;1.48;;
37657;SDS011;23500;53.268;8.308;2023-08-08T03:52:43;1.63;;;1.40;;
37657;SDS011;23500;53.268;8.308;2023-08-08T03:55:09;1.50;;;1.40;;
37657;SDS011;23500;53.268;8.308;2023-08-08T03:57:34;1.70;;;1.50;;
37657;SDS011;23500;53.268;8.308;2023-08-08T04:00:00;1.40;;;1.30;;
37657;SDS011;23500;53.268;8.308;2023-08-08T04:02:26;1.65;;;1.42;;
37657;SDS011;23500;53.268;8.308;2023-08-08T04:04:53;1.50;;;1.40;;
37657;SDS011;23500;53.268;8.308;2023-08-08T04:07:18;2.25;;;1.80;;
37657;SDS011;23500;53.268;8.308;2023-08-08T04:09:44;1.75;;;1.55;;
37657;SDS011;23500;53.268;8.308;2023-08-08T04:12:10;1.30;;;1.20;;
37657;SDS011;23500;53.268;8.308;2023-08-08T04:14:35;1.55;;;1.45;;
37657;SDS011;23500;53.268;8.308;2023-08-08T04:17:01;2.40;;;1.67;;
37657;SDS011;23500;53.268;8.308;2023-08-08T04:19:28;2.08;;;1.50;;
37657;SDS011;23500;53.268;8.308;2023-08-08T04:21:53;1.42;;;1.33;;
37657;SDS011;23500;53.268;8.308;2023-08-08T04:24:19;1.65;;;1.50;;
37657;SDS011;23500;53.268;8.308;2023-08-08T04:26:44;1.50;;;1.40;;
37657;SDS011;23500;53.268;8.308;2023-08-08T04:29:10;1.65;;;1.50;;
37657;SDS011;23500;53.268;8.308;2023-08-08T04:31:36;1.40;;;1.30;;
37657;SDS011;23500;53.268;8.308;2023-08-08T04:34:02;1.65;;;1.55;;
37657;SDS011;23500;53.268;8.308;2023-08-08T04:36:27;1.60;;;1.38;;
37657;SDS011;23500;53.268;8.308;2023-08-08T04:38:53;1.83;;;1.60;;
37657;SDS011;23500;53.268;8.308;2023-08-08T04:41:19;1.60;;;1.40;;
37657;SDS011;23500;53.268;8.308;2023-08-08T04:43:45;1.50;;;1.40;;
37657;SDS011;23500;53.268;8.308;2023-08-08T04:46:11;1.55;;;1.45;;
37657;SDS011;23500;53.268;8.308;2023-08-08T04:48:37;1.45;;;1.27;;
37657;SDS011;23500;53.268;8.308;2023-08-08T04:51:06;1.73;;;1.63;;
37657;SDS011;23500;53.268;8.308;2023-08-08T04:53:33;1.70;;;1.48;;
37657;SDS011;23500;53.268;8.308;2023-08-08T04:55:58;1.80;;;1.50;;
37657;SDS011;23500;53.268;8.308;2023-08-08T04:58:24;1.90;;;1.50;;
37657;SDS011;23500;53.268;8.308;2023-08-08T05:00:49;1.52;;;1.40;;
37657;SDS011;23500;53.268;8.308;2023-08-08T05:03:20;1.58;;;1.45;;
37657;SDS011;23500;53.268;8.308;2023-08-08T05:05:45;2.00;;;1.55;;
37657;SDS011;23500;53.268;8.308;2023-08-08T05:08:12;1.38;;;1.27;;
37657;SDS011;23500;53.268;8.308;2023-08-08T05:10:38;1.27;;;1.17;;
37657;SDS011;23500;53.268;8.308;2023-08-08T05:13:04;1.88;;;1.65;;
37657;SDS011;23500;53.268;8.308;2023-08-08T05:15:29;2.00;;;1.50;;
37657;SDS011;23500;53.268;8.308;2023-08-08T05:17:55;1.40;;;1.30;;
37657;SDS011;23500;53.268;8.308;2023-08-08T05:20:21;1.25;;;1.15;;
37657;SDS011;23500;53.268;8.308;2023-08-08T05:22:47;1.60;;;1.40;;
37657;SDS011;23500;53.268;8.308;2023-08-08T05:25:13;1.67;;;1.40;;
37657;SDS011;23500;53.268;8.308;2023-08-08T05:27:38;1.30;;;1.20;;
37657;SDS011;23500;53.268;8.308;2023-08-08T05:30:04;2.13;;;1.52;;
37657;SDS011;23500;53.268;8.308;2023-08-08T05:32:31;1.73;;;1.55;;
37657;SDS011;23500;53.268;8.308;2023-08-08T05:34:56;1.50;;;1.40;;
37657;SDS011;23500;53.268;8.308;2023-08-08T05:37:23;1.88;;;1.30;;
37657;SDS011;23500;53.268;8.308;2023-08-08T05:39:49;1.95;;;1.50;;
37657;SDS011;23500;53.268;8.308;2023-08-08T05:42:15;1.60;;;1.48;;
37657;SDS011;23500;53.268;8.308;2023-08-08T05:44:40;1.58;;;1.40;;
37657;SDS011;23500;53.268;8.308;2023-08-08T05:47:09;3.60;;;1.90;;
37657;SDS011;23500;53.268;8.308;2023-08-08T05:49:35;5.85;;;2.42;;
37657;SDS011;23500;53.268;8.308;2023-08-08T05:52:01;15.68;;;4.00;;
37657;SDS011;23500;53.268;8.308;2023-08-08T05:54:27;13.35;;;4.28;;
37657;SDS011;23500;53.268;8.308;2023-08-08T05:56:53;23.77;;;6.03;;
37657;SDS011;23500;53.268;8.308;2023-08-08T05:59:19;24.17;;;5.90;;
37657;SDS011;23500;53.268;8.308;2023-08-08T06:01:44;20.63;;;5.85;;
37657;SDS011;23500;53.268;8.308;2023-08-08T06:04:11;23.23;;;5.95;;
37657;SDS011;23500;53.268;8.308;2023-08-08T06:06:37;23.95;;;6.25;;
37657;SDS011;23500;53.268;8.308;2023-08-08T06:09:03;35.40;;;9.40;;
37657;SDS011;23500;53.268;8.308;2023-08-08T06:11:29;36.67;;;8.80;;
37657;SDS011;23500;53.268;8.308;2023-08-08T06:13:55;31.42;;;9.15;;
37657;SDS011;23500;53.268;8.308;2023-08-08T06:16:21;30.13;;;8.45;;
37657;SDS011;23500;53.268;8.308;2023-08-08T06:18:47;32.40;;;9.02;;
37657;SDS011;23500;53.268;8.308;2023-08-08T06:21:13;28.40;;;8.27;;
37657;SDS011;23500;53.268;8.308;2023-08-08T06:23:38;32.22;;;9.13;;
37657;SDS011;23500;53.268;8.308;2023-08-08T06:26:04;33.63;;;9.57;;
37657;SDS011;23500;53.268;8.308;2023-08-08T06:28:30;35.85;;;10.00;;
37657;SDS011;23500;53.268;8.308;2023-08-08T06:30:59;32.88;;;9.45;;
37657;SDS011;23500;53.268;8.308;2023-08-08T06:33:25;32.65;;;9.23;;
37657;SDS011;23500;53.268;8.308;2023-08-08T06:35:50;36.80;;;10.27;;
37657;SDS011;23500;53.268;8.308;2023-08-08T06:38:16;35.38;;;10.63;;
37657;SDS011;23500;53.268;8.308;2023-08-08T06:40:42;35.80;;;10.02;;
37657;SDS011;23500;53.268;8.308;2023-08-08T06:43:07;34.28;;;10.05;;
37657;SDS011;23500;53.268;8.308;2023-08-08T06:45:33;40.05;;;11.52;;
37657;SDS011;23500;53.268;8.308;2023-08-08T06:47:59;39.05;;;12.13;;
37657;SDS011;23500;53.268;8.308;2023-08-08T06:50:25;38.35;;;11.32;;
37657;SDS011;23500;53.268;8.308;2023-08-08T06:52:50;36.42;;;11.40;;
37657;SDS011;23500;53.268;8.308;2023-08-08T06:55:16;36.72;;;11.50;;
37657;SDS011;23500;53.268;8.308;2023-08-08T06:57:42;37.70;;;11.60;;
37657;SDS011;23500;53.268;8.308;2023-08-08T07:00:08;37.83;;;11.27;;
37657;SDS011;23500;53.268;8.308;2023-08-08T07:02:37;36.70;;;11.48;;
37657;SDS011;23500;53.268;8.308;2023-08-08T07:05:02;38.72;;;10.98;;
37657;SDS011;23500;53.268;8.308;2023-08-08T07:07:29;38.90;;;11.38;;
37657;SDS011;23500;53.268;8.308;2023-08-08T07:09:55;35.63;;;10.50;;
37657;SDS011;23500;53.268;8.308;2023-08-08T07:12:21;34.50;;;11.07;;
37657;SDS011;23500;53.268;8.308;2023-08-08T07:14:47;38.83;;;10.77;;
37657;SDS011;23500;53.268;8.308;2023-08-08T07:17:13;35.08;;;11.23;;
37657;SDS011;23500;53.268;8.308;2023-08-08T07:19:39;35.38;;;10.73;;
37657;SDS011;23500;53.268;8.308;2023-08-08T07:22:06;35.05;;;11.38;;
37657;SDS011;23500;53.268;8.308;2023-08-08T07:24:32;31.25;;;9.95;;
37657;SDS011;23500;53.268;8.308;2023-08-08T07:26:58;29.75;;;10.63;;
37657;SDS011;23500;53.268;8.308;2023-08-08T07:29:24;34.65;;;11.27;;
37657;SDS011;23500;53.268;8.308;2023-08-08T07:31:53;33.63;;;10.88;;
37657;SDS011;23500;53.268;8.308;2023-08-08T07:34:19;33.70;;;10.70;;
37657;SDS011;23500;53.268;8.308;2023-08-08T07:36:46;31.80;;;10.95;;
37657;SDS011;23500;53.268;8.308;2023-08-08T07:39:11;34.10;;;10.52;;
37657;SDS011;23500;53.268;8.308;2023-08-08T07:41:37;30.10;;;10.55;;
37657;SDS011;23500;53.268;8.308;2023-08-08T07:44:03;28.65;;;9.82;;
37657;SDS011;23500;53.268;8.308;2023-08-08T07:46:29;26.00;;;9.65;;
37657;SDS011;23500;53.268;8.308;2023-08-08T07:48:55;32.58;;;10.35;;
37657;SDS011;23500;53.268;8.308;2023-08-08T07:51:24;26.60;;;9.13;;
37657;SDS011;23500;53.268;8.308;2023-08-08T07:53:50;31.13;;;9.77;;
37657;SDS011;23500;53.268;8.308;2023-08-08T07:56:16;27.85;;;9.43;;
37657;SDS011;23500;53.268;8.308;2023-08-08T07:58:41;29.80;;;9.73;;
37657;SDS011;23500;53.268;8.308;2023-08-08T08:01:07;26.90;;;9.75;;
37657;SDS011;23500;53.268;8.308;2023-08-08T08:03:33;28.98;;;9.52;;
37657;SDS011;23500;53.268;8.308;2023-08-08T08:05:58;25.45;;;9.40;;
37657;SDS011;23500;53.268;8.308;2023-08-08T08:08:24;29.83;;;9.57;;
37657;SDS011;23500;53.268;8.308;2023-08-08T08:10:50;26.65;;;8.85;;
37657;SDS011;23500;53.268;8.308;2023-08-08T08:13:16;26.83;;;9.35;;
37657;SDS011;23500;53.268;8.308;2023-08-08T08:15:42;27.35;;;9.57;;
37657;SDS011;23500;53.268;8.308;2023-08-08T08:18:08;25.75;;;8.43;;
37657;SDS011;23500;53.268;8.308;2023-08-08T08:20:34;26.75;;;8.70;;
37657;SDS011;23500;53.268;8.308;2023-08-08T08:22:59;24.10;;;9.50;;
37657;SDS011;23500;53.268;8.308;2023-08-08T08:25:25;25.88;;;9.15;;
37657;SDS011;23500;53.268;8.308;2023-08-08T08:27:51;25.88;;;8.90;;
37657;SDS011;23500;53.268;8.308;2023-08-08T08:30:16;23.88;;;8.75;;
37657;SDS011;23500;53.268;8.308;2023-08-08T08:32:44;23.58;;;9.10;;
37657;SDS011;23500;53.268;8.308;2023-08-08T08:35:09;22.58;;;8.55;;
37657;SDS011;23500;53.268;8.308;2023-08-08T08:37:37;23.30;;;8.93;;
37657;SDS011;23500;53.268;8.308;2023-08-08T08:40:03;25.77;;;8.88;;
37657;SDS011;23500;53.268;8.308;2023-08-08T08:42:30;24.02;;;8.90;;
37657;SDS011;23500;53.268;8.308;2023-08-08T08:44:58;24.75;;;8.82;;
37657;SDS011;23500;53.268;8.308;2023-08-08T08:47:25;19.85;;;8.15;;
37657;SDS011;23500;53.268;8.308;2023-08-08T08:49:54;22.35;;;8.60;;
37657;SDS011;23500;53.268;8.308;2023-08-08T08:52:20;22.73;;;8.57;;
37657;SDS011;23500;53.268;8.308;2023-08-08T08:54:47;23.67;;;9.00;;
37657;SDS011;23500;53.268;8.308;2023-08-08T08:57:13;24.25;;;8.38;;
37657;SDS011;23500;53.268;8.308;2023-08-08T08:59:40;22.30;;;8.73;;
37657;SDS011;23500;53.268;8.308;2023-08-08T09:02:06;22.83;;;8.55;;
37657;SDS011;23500;53.268;8.308;2023-08-08T09:04:33;23.88;;;8.40;;
37657;SDS011;23500;53.268;8.308;2023-08-08T09:06:59;25.70;;;8.05;;
37657;SDS011;23500;53.268;8.308;2023-08-08T09:09:26;21.95;;;7.68;;
37657;SDS011;23500;53.268;8.308;2023-08-08T09:11:52;22.85;;;7.78;;
37657;SDS011;23500;53.268;8.308;2023-08-08T09:14:20;19.30;;;7.78;;
37657;SDS011;23500;53.268;8.308;2023-08-08T09:16:48;19.10;;;7.72;;
37657;SDS011;23500;53.268;8.308;2023-08-08T09:19:16;20.98;;;7.97;;
37657;SDS011;23500;53.268;8.308;2023-08-08T09:21:45;16.75;;;7.60;;
37657;SDS011;23500;53.268;8.308;2023-08-08T09:24:11;17.95;;;7.32;;
37657;SDS011;23500;53.268;8.308;2023-08-08T09:26:38;17.95;;;7.35;;
37657;SDS011;23500;53.268;8.308;2023-08-08T09:29:05;19.08;;;7.53;;
37657;SDS011;23500;53.268;8.308;2023-08-08T09:31:31;18.08;;;6.72;;
37657;SDS011;23500;53.268;8.308;2023-08-08T09:33:59;16.52;;;7.00;;
37657;SDS011;23500;53.268;8.308;2023-08-08T09:36:26;18.27;;;6.93;;
37657;SDS011;23500;53.268;8.308;2023-08-08T09:38:52;17.60;;;6.85;;
37657;SDS011;23500;53.268;8.308;2023-08-08T09:41:22;22.23;;;7.80;;
37657;SDS011;23500;53.268;8.308;2023-08-08T09:43:49;17.80;;;7.15;;
37657;SDS011;23500;53.268;8.308;2023-08-08T09:46:17;16.88;;;6.75;;
37657;SDS011;23500;53.268;8.308;2023-08-08T09:48:44;14.02;;;6.28;;
37657;SDS011;23500;53.268;8.308;2023-08-08T09:51:10;14.68;;;5.93;;
37657;SDS011;23500;53.268;8.308;2023-08-08T09:53:35;16.33;;;6.60;;
37657;SDS011;23500;53.268;8.308;2023-08-08T09:56:04;17.52;;;6.57;;
37657;SDS011;23500;53.268;8.308;2023-08-08T09:58:31;19.63;;;7.28;;
37657;SDS011;23500;53.268;8.308;2023-08-08T10:00:57;15.23;;;6.63;;
37657;SDS011;23500;53.268;8.308;2023-08-08T10:03:23;15.43;;;6.50;;
37657;SDS011;23500;53.268;8.308;2023-08-08T10:05:49;13.57;;;5.85;;
37657;SDS011;23500;53.268;8.308;2023-08-08T10:08:15;11.57;;;5.72;;
37657;SDS011;23500;53.268;8.308;2023-08-08T10:10:41;13.80;;;6.28;;
37657;SDS011;23500;53.268;8.308;2023-08-08T10:13:10;13.48;;;5.90;;
37657;SDS011;23500;53.268;8.308;2023-08-08T10:15:43;15.15;;;5.95;;
37657;SDS011;23500;53.268;8.308;2023-08-08T10:18:09;13.10;;;5.95;;
37657;SDS011;23500;53.268;8.308;2023-08-08T10:20:37;14.82;;;5.72;;
37657;SDS011;23500;53.268;8.308;2023-08-08T10:23:03;11.50;;;5.57;;
37657;SDS011;23500;53.268;8.308;2023-08-08T10:25:32;17.27;;;6.32;;
37657;SDS011;23500;53.268;8.308;2023-08-08T10:28:04;12.50;;;6.00;;
37657;SDS011;23500;53.268;8.308;2023-08-08T10:30:46;14.52;;;6.30;;
37657;SDS011;23500;53.268;8.308;2023-08-08T10:33:26;16.92;;;5.70;;
37657;SDS011;23500;53.268;8.308;2023-08-08T10:38:24;15.52;;;5.85;;
37657;SDS011;23500;53.268;8.308;2023-08-08T10:40:59;13.38;;;4.72;;
37657;SDS011;23500;53.268;8.308;2023-08-08T10:43:30;11.68;;;5.82;;
37657;SDS011;23500;53.268;8.308;2023-08-08T10:45:57;12.38;;;5.55;;
37657;SDS011;23500;53.268;8.308;2023-08-08T10:48:27;13.48;;;5.65;;
37657;SDS011;23500;53.268;8.308;2023-08-08T10:50:57;12.57;;;6.00;;
37657;SDS011;23500;53.268;8.308;2023-08-08T10:53:27;13.10;;;5.28;;
37657;SDS011;23500;53.268;8.308;2023-08-08T10:56:00;11.75;;;5.40;;
37657;SDS011;23500;53.268;8.308;2023-08-08T10:58:37;11.23;;;5.35;;
37657;SDS011;23500;53.268;8.308;2023-08-08T11:01:07;12.48;;;5.05;;
37657;SDS011;23500;53.268;8.308;2023-08-08T11:03:37;10.40;;;5.07;;
37657;SDS011;23500;53.268;8.308;2023-08-08T11:06:05;10.48;;;4.97;;
37657;SDS011;23500;53.268;8.308;2023-08-08T11:08:32;10.50;;;4.80;;
37657;SDS011;23500;53.268;8.308;2023-08-08T11:10:58;12.43;;;5.15;;
37657;SDS011;23500;53.268;8.308;2023-08-08T11:13:24;10.25;;;4.60;;
37657;SDS011;23500;53.268;8.308;2023-08-08T11:15:51;10.45;;;4.90;;
37657;SDS011;23500;53.268;8.308;2023-08-08T11:18:16;10.93;;;4.57;;
37657;SDS011;23500;53.268;8.308;2023-08-08T11:20:42;10.45;;;4.40;;
37657;SDS011;23500;53.268;8.308;2023-08-08T11:23:09;9.13;;;4.82;;
37657;SDS011;23500;53.268;8.308;2023-08-08T11:25:39;8.93;;;4.57;;
37657;SDS011;23500;53.268;8.308;2023-08-08T11:28:06;9.85;;;4.60;;
37657;SDS011;23500;53.268;8.308;2023-08-08T11:30:34;9.85;;;4.90;;
37657;SDS011;23500;53.268;8.308;2023-08-08T11:33:02;10.93;;;5.35;;
37657;SDS011;23500;53.268;8.308;2023-08-08T11:35:28;12.00;;;4.82;;
37657;SDS011;23500;53.268;8.308;2023-08-08T11:37:56;9.27;;;4.38;;
37657;SDS011;23500;53.268;8.308;2023-08-08T11:40:24;8.63;;;4.20;;
37657;SDS011;23500;53.268;8.308;2023-08-08T11:42:51;6.35;;;3.85;;
37657;SDS011;23500;53.268;8.308;2023-08-08T11:45:18;9.15;;;4.65;;
37657;SDS011;23500;53.268;8.308;2023-08-08T11:47:48;8.20;;;4.43;;
37657;SDS011;23500;53.268;8.308;2023-08-08T11:50:18;9.40;;;4.10;;
37657;SDS011;23500;53.268;8.308;2023-08-08T11:52:45;9.85;;;4.15;;
37657;SDS011;23500;53.268;8.308;2023-08-08T11:55:12;8.90;;;4.15;;
37657;SDS011;23500;53.268;8.308;2023-08-08T11:57:40;9.43;;;4.47;;
37657;SDS011;23500;53.268;8.308;2023-08-08T12:00:07;7.80;;;3.83;;
37657;SDS011;23500;53.268;8.308;2023-08-08T12:02:34;8.48;;;4.00;;
37657;SDS011;23500;53.268;8.308;2023-08-08T12:05:07;8.02;;;3.70;;
37657;SDS011;23500;53.268;8.308;2023-08-08T12:07:35;8.65;;;3.92;;
37657;SDS011;23500;53.268;8.308;2023-08-08T12:10:02;7.97;;;4.00;;
37657;SDS011;23500;53.268;8.308;2023-08-08T12:12:31;7.57;;;3.63;;
37657;SDS011;23500;53.268;8.308;2023-08-08T12:15:02;9.02;;;4.10;;
37657;SDS011;23500;53.268;8.308;2023-08-08T12:17:30;7.50;;;3.78;;
37657;SDS011;23500;53.268;8.308;2023-08-08T12:19:59;8.95;;;4.35;;
37657;SDS011;23500;53.268;8.308;2023-08-08T12:22:25;8.57;;;4.00;;
37657;SDS011;23500;53.268;8.308;2023-08-08T12:24:51;7.85;;;3.55;;
37657;SDS011;23500;53.268;8.308;2023-08-08T12:27:17;7.68;;;4.22;;
37657;SDS011;23500;53.268;8.308;2023-08-08T12:29:42;6.55;;;3.60;;
37657;SDS011;23500;53.268;8.308;2023-08-08T12:32:09;7.10;;;3.35;;
37657;SDS011;23500;53.268;8.308;2023-08-08T12:34:35;6.70;;;3.28;;
37657;SDS011;23500;53.268;8.308;2023-08-08T12:37:01;6.65;;;4.00;;
37657;SDS011;23500;53.268;8.308;2023-08-08T12:39:27;6.53;;;3.35;;
37657;SDS011;23500;53.268;8.308;2023-08-08T12:41:54;6.57;;;3.40;;
37657;SDS011;23500;53.268;8.308;2023-08-08T12:44:19;7.03;;;3.70;;
37657;SDS011;23500;53.268;8.308;2023-08-08T12:46:45;6.93;;;3.15;;
37657;SDS011;23500;53.268;8.308;2023-08-08T12:49:11;5.00;;;2.80;;
37657;SDS011;23500;53.268;8.308;2023-08-08T12:51:37;4.90;;;2.95;;
37657;SDS011;23500;53.268;8.308;2023-08-08T12:54:02;4.53;;;3.05;;
37657;SDS011;23500;53.268;8.308;2023-08-08T12:56:28;6.15;;;2.75;;
37657;SDS011;23500;53.268;8.308;2023-08-08T12:58:54;3.60;;;2.35;;
37657;SDS011;23500;53.268;8.308;2023-08-08T13:01:20;4.18;;;2.40;;
37657;SDS011;23500;53.268;8.308;2023-08-08T13:03:45;4.93;;;2.53;;
37657;SDS011;23500;53.268;8.308;2023-08-08T13:06:11;3.90;;;2.28;;
37657;SDS011;23500;53.268;8.308;2023-08-08T13:08:38;3.92;;;2.50;;
37657;SDS011;23500;53.268;8.308;2023-08-08T13:11:04;4.18;;;2.20;;
37657;SDS011;23500;53.268;8.308;2023-08-08T13:13:30;3.83;;;2.25;;
37657;SDS011;23500;53.268;8.308;2023-08-08T13:15:56;4.38;;;2.33;;
37657;SDS011;23500;53.268;8.308;2023-08-08T13:18:22;4.47;;;2.28;;
37657;SDS011;23500;53.268;8.308;2023-08-08T13:20:48;2.72;;;1.90;;
37657;SDS011;23500;53.268;8.308;2023-08-08T13:23:13;4.90;;;2.30;;
37657;SDS011;23500;53.268;8.308;2023-08-08T13:25:39;3.65;;;2.50;;
37657;SDS011;23500;53.268;8.308;2023-08-08T13:28:06;4.55;;;2.15;;
37657;SDS011;23500;53.268;8.308;2023-08-08T13:30:32;4.05;;;1.85;;
37657;SDS011;23500;53.268;8.308;2023-08-08T13:32:59;2.95;;;2.05;;
37657;SDS011;23500;53.268;8.308;2023-08-08T13:35:25;4.65;;;2.33;;
37657;SDS011;23500;53.268;8.308;2023-08-08T13:37:50;4.82;;;2.47;;
37657;SDS011;23500;53.268;8.308;2023-08-08T13:40:17;2.90;;;1.88;;
37657;SDS011;23500;53.268;8.308;2023-08-08T13:42:43;4.30;;;2.05;;
37657;SDS011;23500;53.268;8.308;2023-08-08T13:45:13;4.88;;;2.30;;
37657;SDS011;23500;53.268;8.308;2023-08-08T13:47:39;2.42;;;2.00;;
37657;SDS011;23500;53.268;8.308;2023-08-08T13:50:05;2.90;;;1.92;;
37657;SDS011;23500;53.268;8.308;2023-08-08T13:52:31;3.65;;;1.80;;
37657;SDS011;23500;53.268;8.308;2023-08-08T13:54:58;5.10;;;2.10;;
37657;SDS011;23500;53.268;8.308;2023-08-08T13:57:24;3.65;;;1.95;;
37657;SDS011;23500;53.268;8.308;2023-08-08T13:59:50;4.20;;;2.00;;
37657;SDS011;23500;53.268;8.308;2023-08-08T14:02:15;4.15;;;1.92;;
37657;SDS011;23500;53.268;8.308;2023-08-08T14:04:43;4.38;;;2.17;;
37657;SDS011;23500;53.268;8.308;2023-08-08T14:07:09;4.10;;;1.90;;
37657;SDS011;23500;53.268;8.308;2023-08-08T14:09:35;3.60;;;1.60;;
37657;SDS011;23500;53.268;8.308;2023-08-08T14:12:01;3.67;;;1.65;;
37657;SDS011;23500;53.268;8.308;2023-08-08T14:14:26;2.38;;;1.52;;
37657;SDS011;23500;53.268;8.308;2023-08-08T14:16:52;3.15;;;1.70;;
37657;SDS011;23500;53.268;8.308;2023-08-08T14:19:18;2.35;;;1.80;;
37657;SDS011;23500;53.268;8.308;2023-08-08T14:21:44;2.60;;;1.73;;
37657;SDS011;23500;53.268;8.308;2023-08-08T14:24:10;2.75;;;1.92;;
37657;SDS011;23500;53.268;8.308;2023-08-08T14:26:35;2.83;;;1.60;;
37657;SDS011;23500;53.268;8.308;2023-08-08T14:29:01;3.92;;;1.92;;
37657;SDS011;23500;53.268;8.308;2023-08-08T14:31:27;2.55;;;1.77;;
37657;SDS011;23500;53.268;8.308;2023-08-08T14:33:53;2.88;;;1.98;;
37657;SDS011;23500;53.268;8.308;2023-08-08T14:36:19;2.75;;;1.98;;
37657;SDS011;23500;53.268;8.308;2023-08-08T14:38:45;2.90;;;1.70;;
37657;SDS011;23500;53.268;8.308;2023-08-08T14:41:10;3.33;;;1.90;;